首页
METAR-TAF:

METAR-TAF

机场 :

米登霍爾皇家空軍基地

Mildenhall, 英格兰

纬度: 52-22N, 经度: 000-29E, 海拔: 10米

当前天气观测

该预报发布于1小时和6分钟前的02:56 UTC
静风
温度 2°C
湿度 100%
气压 1034 hPa
能见度10公里或以上
天空无云

METAR: EGUN 260256Z 00000KT 9999 CLR 02/02 A3053 RMK AO2A SLP342 T00180018 52010 FZRANO

时间: 04:02 (04:02 UTC)

预报

该预报发布于8小时和2分钟前的20:00 UTC
预报有效从25日的 20点(UTC)到 27日的 02点(UTC)
风速12节,风向西
能见度10公里或以上
少量云层高于5000英尺
成为
从 26日的 04点(UTC)到 26日的 05点(UTC)
风速6节,风向西转西北
能見度: 5000
少量云层高于1500英尺
轻雾
成为
从 26日的 09点(UTC)到 26日的 10点(UTC)
风速9节,风向西转西北
能见度10公里或以上
少量云层高于2000英尺
成为
从 26日的 20点(UTC)到 26日的 21点(UTC)
风速6节,风向多变
能见度10公里或以上
散云层高于2000英尺

TAF: EGUN 252000Z 2520/2702 28012KT 9999 FEW050 QNH3042INS BECMG 2604/2605 30006KT 5000 BR FEW015 QNH3054INS BECMG 2609/2610 29009KT 9999 NSW FEW020 QNH3063INS BECMG 2620/2621 VRB06KT 9999 SCT020 QNH3068INS TX11/2614Z TN01/2607Z

超过4000个机场的气象观测和天气预报(METAR&TAF报告)。

可查询的气象台以黄色和红色小点在地图上表示。

将鼠标移到小点上方,可查看气象台名称。

然后点击查看天气观测和预报。

如需切换地图:点击带黑十字的绿色按钮放大地图;点击带横线的绿色按钮缩小地图;或者点击绿色箭头查看邻近地区的地图。


METAR-TAF: